createdAt,value
2018-05-21T00:01:21.153Z,13.60
2018-05-21T00:03:48.685Z,13.60
2018-05-21T00:06:16.261Z,13.60
2018-05-21T00:08:43.828Z,13.60
2018-05-21T00:11:11.404Z,13.50
2018-05-21T00:13:38.995Z,13.50
2018-05-21T00:16:06.526Z,13.50
2018-05-21T00:18:34.057Z,13.40
2018-05-21T00:21:01.709Z,13.40
2018-05-21T00:23:29.274Z,13.30
2018-05-21T00:25:56.815Z,13.40
2018-05-21T00:28:24.390Z,13.30
2018-05-21T00:30:51.919Z,13.30
2018-05-21T00:33:20.225Z,13.20
2018-05-21T00:35:48.560Z,13.20
2018-05-21T00:38:16.093Z,13.10
2018-05-21T00:40:43.621Z,13.20
2018-05-21T00:43:11.220Z,13.10
2018-05-21T00:45:38.745Z,13.10
2018-05-21T00:48:06.284Z,13.10
2018-05-21T00:50:33.881Z,13.00
2018-05-21T00:53:01.408Z,13.00
2018-05-21T00:55:37.450Z,13.00
2018-05-21T00:58:05.005Z,13.00
2018-05-21T01:00:32.536Z,12.90
2018-05-21T01:03:00.128Z,12.90
2018-05-21T01:05:27.663Z,12.80
2018-05-21T01:07:55.957Z,12.80
2018-05-21T01:10:24.296Z,12.80
2018-05-21T01:12:51.838Z,12.70
2018-05-21T01:15:19.378Z,12.70
2018-05-21T01:17:47.732Z,12.60
2018-05-21T01:20:15.265Z,12.60
2018-05-21T01:22:42.793Z,12.60
2018-05-21T01:25:10.358Z,12.50
2018-05-21T01:27:38.090Z,12.50
2018-05-21T01:30:05.639Z,12.50
2018-05-21T01:32:33.980Z,12.40
2018-05-21T01:35:01.525Z,12.30
2018-05-21T01:37:29.053Z,12.40
2018-05-21T01:39:57.385Z,12.30
2018-05-21T01:42:24.908Z,12.30
2018-05-21T01:44:52.433Z,12.30
2018-05-21T01:47:20.026Z,12.20
2018-05-21T01:49:47.550Z,12.20
2018-05-21T01:52:15.072Z,12.20
2018-05-21T01:54:42.669Z,12.20
2018-05-21T01:57:10.970Z,12.10
2018-05-21T01:59:39.271Z,12.10
2018-05-21T02:02:06.863Z,12.00
2018-05-21T02:04:34.385Z,12.10
2018-05-21T02:07:02.684Z,12.00
2018-05-21T02:09:30.257Z,12.00
2018-05-21T02:11:57.795Z,12.00
2018-05-21T02:14:25.325Z,12.00
2018-05-21T02:16:52.951Z,12.00
2018-05-21T02:19:20.477Z,12.00
2018-05-21T02:21:48.056Z,11.90
2018-05-21T02:24:15.637Z,11.90
2018-05-21T02:26:43.169Z,11.90
2018-05-21T02:29:10.692Z,11.90
2018-05-21T02:31:38.401Z,11.90
2018-05-21T02:34:06.707Z,11.80
2018-05-21T02:36:34.249Z,11.80
2018-05-21T02:39:02.579Z,11.80
2018-05-21T02:41:30.117Z,11.70
2018-05-21T02:43:58.414Z,11.80
2018-05-21T02:46:25.977Z,11.70
2018-05-21T02:48:54.264Z,11.70
2018-05-21T02:51:22.561Z,11.70
2018-05-21T02:53:50.127Z,11.70
2018-05-21T02:56:18.425Z,11.70
2018-05-21T02:58:45.957Z,11.60
2018-05-21T03:01:13.528Z,11.70
2018-05-21T03:03:41.065Z,11.60
2018-05-21T03:06:08.597Z,11.60
2018-05-21T03:08:36.181Z,11.60
2018-05-21T03:11:03.709Z,11.60
2018-05-21T03:13:31.227Z,11.60
2018-05-21T03:15:58.789Z,11.60
2018-05-21T03:18:26.322Z,11.60
2018-05-21T03:20:53.861Z,11.60
2018-05-21T03:23:21.436Z,11.60
2018-05-21T03:25:48.980Z,11.60
2018-05-21T03:28:16.509Z,11.60
2018-05-21T03:30:44.112Z,11.60
2018-05-21T03:33:11.640Z,11.70
2018-05-21T03:35:39.198Z,11.70
2018-05-21T03:38:06.796Z,11.70
2018-05-21T03:40:34.320Z,11.80
2018-05-21T03:43:01.869Z,11.80
2018-05-21T03:45:29.450Z,11.80
2018-05-21T03:47:56.982Z,11.90
2018-05-21T03:50:24.518Z,11.90
2018-05-21T03:52:52.105Z,12.00
2018-05-21T03:55:19.656Z,12.20
2018-05-21T03:57:47.184Z,12.60
2018-05-21T04:00:27.217Z,13.60
2018-05-21T04:03:06.480Z,13.60
2018-05-21T04:05:34.826Z,14.60
2018-05-21T04:08:02.364Z,14.50
2018-05-21T04:10:29.887Z,15.00
2018-05-21T04:12:57.456Z,15.40
2018-05-21T04:15:24.988Z,15.80
2018-05-21T04:17:52.513Z,16.00
2018-05-21T04:20:20.089Z,16.30
2018-05-21T04:22:47.632Z,16.60
2018-05-21T04:25:15.240Z,16.80
2018-05-21T04:27:42.857Z,17.10
2018-05-21T04:30:10.381Z,17.40
2018-05-21T04:35:11.930Z,17.80
2018-05-21T04:37:39.464Z,17.90
2018-05-21T04:40:07.766Z,18.20
2018-05-21T04:42:35.460Z,18.20
2018-05-21T04:45:03.004Z,17.90
2018-05-21T04:47:30.537Z,18.00
2018-05-21T04:49:58.169Z,18.40
2018-05-21T04:52:25.693Z,18.60
2018-05-21T04:54:53.989Z,19.30
2018-05-21T04:57:22.417Z,19.60
2018-05-21T04:59:49.954Z,19.60
2018-05-21T05:02:18.269Z,19.70
2018-05-21T05:04:45.838Z,19.70
2018-05-21T05:07:13.357Z,19.60
2018-05-21T05:09:40.906Z,19.70
2018-05-21T05:12:09.074Z,19.90
2018-05-21T05:14:36.605Z,20.10
2018-05-21T05:17:04.900Z,20.50
2018-05-21T05:19:33.241Z,20.60
2018-05-21T05:22:00.765Z,20.60
2018-05-21T05:24:29.065Z,21.10
2018-05-21T05:26:56.637Z,21.10
2018-05-21T05:29:24.171Z,21.40
2018-05-21T05:31:51.695Z,21.30
2018-05-21T05:34:19.266Z,21.00
2018-05-21T05:36:46.797Z,20.70
2018-05-21T05:39:15.103Z,21.60
2018-05-21T05:41:42.675Z,21.70
2018-05-21T05:44:10.212Z,21.80
2018-05-21T05:46:37.741Z,21.70
2018-05-21T05:49:05.331Z,21.50
2018-05-21T05:51:32.860Z,21.20
2018-05-21T05:54:00.400Z,21.50
2018-05-21T05:56:27.966Z,22.20
2018-05-21T05:58:55.489Z,22.40
2018-05-21T06:01:23.026Z,22.60
2018-05-21T06:03:51.370Z,22.90
2018-05-21T06:06:18.915Z,22.90
2018-05-21T06:08:46.523Z,23.90
2018-05-21T06:11:14.074Z,23.80
2018-05-21T06:13:41.643Z,23.10
2018-05-21T06:16:10.097Z,23.40
2018-05-21T06:18:39.400Z,23.40
2018-05-21T06:21:07.718Z,23.90
2018-05-21T06:23:35.240Z,23.90
2018-05-21T06:26:02.824Z,24.40
2018-05-21T06:28:31.169Z,24.20
2018-05-21T06:30:58.699Z,24.20
2018-05-21T06:33:27.036Z,24.00
2018-05-21T06:35:54.617Z,24.00
2018-05-21T06:38:22.158Z,24.00
2018-05-21T06:40:49.728Z,23.70
2018-05-21T06:43:17.400Z,23.60
2018-05-21T06:45:44.948Z,23.50
2018-05-21T06:48:13.280Z,23.70
2018-05-21T06:50:40.813Z,23.60
2018-05-21T06:53:10.028Z,24.50
2018-05-21T06:55:37.600Z,24.50
2018-05-21T06:58:05.125Z,24.70
2018-05-21T07:00:32.650Z,24.60
2018-05-21T07:03:00.237Z,24.10
2018-05-21T07:05:27.772Z,23.60
2018-05-21T07:07:56.217Z,22.70
2018-05-21T07:10:23.769Z,22.70
2018-05-21T07:12:51.296Z,22.60
2018-05-21T07:15:19.637Z,22.80
2018-05-21T07:17:47.207Z,22.80
2018-05-21T07:20:14.746Z,22.40
2018-05-21T07:22:42.296Z,22.00
2018-05-21T07:25:09.916Z,22.00
2018-05-21T07:27:37.477Z,22.00
2018-05-21T07:30:05.047Z,21.80
2018-05-21T07:32:32.616Z,21.70
2018-05-21T07:35:00.173Z,21.80
2018-05-21T07:37:27.704Z,21.50
2018-05-21T07:39:55.278Z,21.70
2018-05-21T07:42:22.802Z,21.50
2018-05-21T07:44:50.337Z,21.30
2018-05-21T07:47:18.682Z,21.80
2018-05-21T07:49:46.218Z,21.70
2018-05-21T07:52:13.750Z,22.10
2018-05-21T07:54:41.317Z,22.30
2018-05-21T07:57:09.768Z,22.10
2018-05-21T07:59:37.298Z,21.80
2018-05-21T08:02:04.868Z,21.40
2018-05-21T08:04:32.494Z,21.40
2018-05-21T08:07:00.025Z,21.80
2018-05-21T08:09:28.372Z,22.40
2018-05-21T08:11:55.899Z,22.40
2018-05-21T08:14:23.420Z,22.10
2018-05-21T08:16:50.989Z,22.20
2018-05-21T08:19:18.513Z,22.40
2018-05-21T08:21:46.033Z,22.70
2018-05-21T08:24:13.617Z,22.80
2018-05-21T08:26:41.137Z,22.50
2018-05-21T08:29:08.688Z,22.50
2018-05-21T08:31:37.033Z,22.60
2018-05-21T08:34:04.578Z,22.60
2018-05-21T08:36:32.108Z,22.90
2018-05-21T08:39:00.441Z,23.00
2018-05-21T08:41:27.973Z,23.00
2018-05-21T08:43:56.269Z,22.90
2018-05-21T08:46:24.596Z,22.80
2018-05-21T08:48:52.257Z,22.80
2018-05-21T08:51:19.684Z,22.30
2018-05-21T08:53:47.272Z,22.30
2018-05-21T08:56:15.568Z,22.50
2018-05-21T08:58:43.156Z,22.50
2018-05-21T09:01:10.750Z,22.50
2018-05-21T09:03:38.269Z,22.60
2018-05-21T09:06:06.556Z,22.80
2018-05-21T09:08:34.893Z,22.80
2018-05-21T09:11:02.434Z,22.80
2018-05-21T09:13:29.964Z,22.70
2018-05-21T09:15:57.545Z,22.80
2018-05-21T09:18:25.848Z,22.70
2018-05-21T09:20:54.137Z,22.90
2018-05-21T09:23:22.480Z,22.80
2018-05-21T09:25:50.001Z,22.80
2018-05-21T09:28:18.295Z,23.50
2018-05-21T09:30:45.922Z,23.50
2018-05-21T09:33:13.457Z,23.50
2018-05-21T09:35:40.980Z,23.00
2018-05-21T09:38:09.343Z,23.30
2018-05-21T09:40:36.908Z,23.30
2018-05-21T09:43:04.438Z,23.60
2018-05-21T09:45:32.796Z,23.70
2018-05-21T09:48:01.157Z,23.40
2018-05-21T09:50:28.688Z,23.40
2018-05-21T09:52:57.040Z,23.20
2018-05-21T09:55:24.598Z,23.20
2018-05-21T09:57:52.124Z,23.50
2018-05-21T10:00:29.597Z,23.60
2018-05-21T10:02:57.125Z,23.50
2018-05-21T10:05:24.665Z,23.50
2018-05-21T10:07:53.004Z,23.80
2018-05-21T10:10:20.538Z,23.80
2018-05-21T10:12:48.079Z,23.40
2018-05-21T10:15:16.420Z,23.30
2018-05-21T10:17:43.960Z,23.30
2018-05-21T10:20:11.496Z,23.30
2018-05-21T10:22:39.073Z,23.40
2018-05-21T10:25:06.609Z,23.70
2018-05-21T10:27:34.180Z,24.00
2018-05-21T10:30:01.767Z,24.00
2018-05-21T10:32:29.289Z,23.70
2018-05-21T10:34:56.821Z,23.40
2018-05-21T10:37:24.480Z,23.30
2018-05-21T10:39:51.982Z,23.20
2018-05-21T10:42:20.269Z,22.90
2018-05-21T10:44:48.597Z,23.10
2018-05-21T10:47:16.126Z,23.10
2018-05-21T10:49:43.645Z,23.40
2018-05-21T10:52:11.445Z,23.50
2018-05-21T10:54:38.975Z,23.60
2018-05-21T10:57:06.537Z,23.70
2018-05-21T10:59:34.118Z,23.70
2018-05-21T11:02:01.805Z,23.80
2018-05-21T11:04:29.372Z,23.70
2018-05-21T11:06:56.935Z,23.50
2018-05-21T11:09:24.463Z,23.50
2018-05-21T11:11:52.097Z,23.70
2018-05-21T11:14:19.701Z,23.60
2018-05-21T11:16:47.238Z,23.60
2018-05-21T11:19:14.776Z,23.80
2018-05-21T11:21:43.137Z,23.50
2018-05-21T11:24:11.703Z,23.50
2018-05-21T11:26:39.232Z,23.30
2018-05-21T11:29:07.592Z,23.50
2018-05-21T11:31:35.120Z,23.40
2018-05-21T11:34:02.650Z,23.40
2018-05-21T11:36:30.992Z,23.20
2018-05-21T11:38:58.533Z,23.20
2018-05-21T11:41:26.062Z,23.30
2018-05-21T11:43:53.645Z,23.30
2018-05-21T11:46:21.172Z,23.20
2018-05-21T11:48:48.798Z,23.10
2018-05-21T11:51:16.406Z,23.10
2018-05-21T11:53:43.940Z,23.10
2018-05-21T11:56:11.616Z,23.10
2018-05-21T11:58:39.958Z,23.40
2018-05-21T12:01:07.515Z,23.40
2018-05-21T12:03:35.043Z,23.50
2018-05-21T12:06:03.381Z,23.50
2018-05-21T12:08:30.917Z,23.50
2018-05-21T12:10:59.200Z,23.70
2018-05-21T12:13:27.568Z,23.70
2018-05-21T12:15:55.100Z,23.70
2018-05-21T12:18:22.629Z,23.70
2018-05-21T12:20:50.979Z,23.90
2018-05-21T12:23:18.510Z,23.90
2018-05-21T12:25:46.046Z,24.00
2018-05-21T12:28:13.617Z,24.00
2018-05-21T12:30:41.873Z,24.10
2018-05-21T12:33:09.399Z,24.20
2018-05-21T12:35:37.729Z,24.10
2018-05-21T12:38:05.343Z,24.10
2018-05-21T12:40:32.808Z,24.00
2018-05-21T12:43:00.381Z,23.80
2018-05-21T12:45:27.919Z,23.60
2018-05-21T12:47:55.461Z,23.60
2018-05-21T12:50:23.033Z,23.70
2018-05-21T12:52:50.560Z,23.80
2018-05-21T12:55:18.130Z,23.90
2018-05-21T12:57:45.758Z,23.80
2018-05-21T13:00:13.289Z,23.80
2018-05-21T13:02:42.511Z,24.00
2018-05-21T13:05:10.915Z,24.10
2018-05-21T13:07:38.393Z,24.10
2018-05-21T13:10:05.929Z,24.10
2018-05-21T13:12:34.262Z,24.00
2018-05-21T13:15:01.796Z,24.00
2018-05-21T13:17:30.096Z,23.80
2018-05-21T13:19:57.666Z,23.80
2018-05-21T13:22:25.194Z,23.90
2018-05-21T13:24:52.721Z,24.10
2018-05-21T13:27:20.301Z,24.10
2018-05-21T13:29:47.836Z,24.20
2018-05-21T13:32:16.149Z,24.20
2018-05-21T13:34:43.742Z,24.20
2018-05-21T13:37:12.212Z,24.30
2018-05-21T13:39:39.793Z,24.20
2018-05-21T13:42:07.369Z,24.10
2018-05-21T13:44:34.938Z,23.90
2018-05-21T13:47:02.472Z,23.80
2018-05-21T13:49:30.989Z,23.90
2018-05-21T13:51:58.537Z,23.90
2018-05-21T13:54:26.866Z,24.10
2018-05-21T13:56:54.438Z,24.10
2018-05-21T13:59:21.972Z,24.10
2018-05-21T14:01:50.292Z,24.00
2018-05-21T14:04:17.861Z,24.00
2018-05-21T14:06:45.401Z,24.00
2018-05-21T14:09:13.692Z,24.10
2018-05-21T14:11:42.968Z,24.30
2018-05-21T14:14:10.489Z,24.30
2018-05-21T14:16:38.103Z,24.30
2018-05-21T14:19:05.762Z,24.20
2018-05-21T14:21:33.374Z,24.30
2018-05-21T14:24:00.846Z,24.30
2018-05-21T14:26:29.189Z,24.10
2018-05-21T14:28:56.864Z,24.10
2018-05-21T14:31:24.418Z,24.10
2018-05-21T14:33:52.098Z,24.00
2018-05-21T14:36:19.693Z,24.00
2018-05-21T14:38:47.483Z,24.00
2018-05-21T14:41:15.079Z,23.90
2018-05-21T14:43:43.371Z,24.10
2018-05-21T14:46:12.625Z,24.20
2018-05-21T14:48:40.200Z,24.20
2018-05-21T14:51:07.752Z,24.20
2018-05-21T14:53:35.361Z,24.30
2018-05-21T14:56:03.049Z,24.00
2018-05-21T14:58:30.990Z,23.90
2018-05-21T15:00:58.574Z,24.00
2018-05-21T15:03:26.145Z,24.00
2018-05-21T15:05:53.691Z,24.00
2018-05-21T15:08:21.218Z,24.00
2018-05-21T15:10:50.294Z,24.00
2018-05-21T15:13:17.841Z,24.00
2018-05-21T15:15:45.405Z,24.00
2018-05-21T15:18:12.976Z,23.90
2018-05-21T15:20:40.536Z,23.90
2018-05-21T15:23:08.866Z,24.00
2018-05-21T15:25:36.566Z,24.00
2018-05-21T15:28:04.204Z,23.90
2018-05-21T15:30:31.733Z,23.90
2018-05-21T15:33:00.164Z,23.70
2018-05-21T15:35:27.740Z,23.70
2018-05-21T15:37:55.296Z,23.70
2018-05-21T15:40:22.886Z,23.70
2018-05-21T15:42:50.514Z,23.60
2018-05-21T15:45:18.935Z,23.60
2018-05-21T15:47:46.517Z,23.60
2018-05-21T15:50:14.045Z,23.70
2018-05-21T15:52:43.410Z,23.70
2018-05-21T15:55:10.999Z,23.70
2018-05-21T15:57:38.676Z,23.70
2018-05-21T16:00:06.210Z,23.70
2018-05-21T16:02:33.797Z,23.70
2018-05-21T16:05:01.329Z,23.60
2018-05-21T16:07:29.626Z,23.60
2018-05-21T16:09:57.197Z,23.60
2018-05-21T16:12:24.728Z,23.60
2018-05-21T16:14:52.264Z,23.80
2018-05-21T16:17:19.842Z,23.80
2018-05-21T16:19:47.409Z,23.60
2018-05-21T16:22:14.939Z,23.60
2018-05-21T16:24:43.116Z,23.60
2018-05-21T16:27:10.642Z,23.50
2018-05-21T16:29:38.220Z,23.50
2018-05-21T16:32:05.880Z,23.40
2018-05-21T16:34:33.642Z,23.30
2018-05-21T16:37:01.511Z,23.30
2018-05-21T16:39:29.086Z,23.20
2018-05-21T16:41:56.622Z,23.20
2018-05-21T16:44:24.938Z,23.20
2018-05-21T16:46:53.293Z,23.20
2018-05-21T16:49:20.852Z,23.20
2018-05-21T16:51:48.390Z,23.10
2018-05-21T16:54:15.969Z,23.20
2018-05-21T16:56:43.525Z,23.20
2018-05-21T16:59:11.100Z,23.30
2018-05-21T17:01:38.713Z,23.30
2018-05-21T17:04:06.240Z,23.30
2018-05-21T17:06:33.790Z,23.30
2018-05-21T17:09:02.156Z,23.10
2018-05-21T17:11:29.688Z,23.10
2018-05-21T17:13:57.308Z,23.00
2018-05-21T17:16:24.860Z,23.00
2018-05-21T17:18:52.403Z,22.90
2018-05-21T17:21:19.933Z,22.90
2018-05-21T17:23:48.280Z,22.80
2018-05-21T17:26:15.821Z,22.80
2018-05-21T17:28:43.398Z,22.80
2018-05-21T17:31:10.977Z,22.80
2018-05-21T17:33:38.520Z,22.80
2018-05-21T17:36:06.041Z,22.80
2018-05-21T17:38:33.607Z,22.80
2018-05-21T17:41:01.158Z,22.70
2018-05-21T17:43:28.686Z,22.70
2018-05-21T17:45:57.016Z,22.60
2018-05-21T17:48:24.608Z,22.60
2018-05-21T17:50:52.142Z,22.60
2018-05-21T17:53:19.728Z,22.50
2018-05-21T17:55:47.253Z,22.50
2018-05-21T17:58:15.257Z,22.50
2018-05-21T18:00:42.854Z,22.40
2018-05-21T18:03:10.458Z,22.30
2018-05-21T18:05:37.946Z,22.30
2018-05-21T18:08:05.519Z,22.30
2018-05-21T18:10:33.057Z,22.30
2018-05-21T18:13:00.585Z,22.20
2018-05-21T18:15:28.174Z,22.20
2018-05-21T18:17:55.718Z,22.10
2018-05-21T18:20:24.022Z,22.10
2018-05-21T18:22:51.603Z,22.10
2018-05-21T18:25:19.146Z,22.10
2018-05-21T18:27:47.451Z,22.00
2018-05-21T18:30:16.229Z,22.00
2018-05-21T18:32:43.745Z,21.90
2018-05-21T18:35:11.297Z,21.90
2018-05-21T18:37:38.869Z,21.90
2018-05-21T18:40:06.398Z,21.80
2018-05-21T18:42:33.992Z,21.80
2018-05-21T18:45:01.795Z,21.70
2018-05-21T18:47:29.320Z,21.70
2018-05-21T18:49:56.852Z,21.60
2018-05-21T18:52:24.514Z,21.50
2018-05-21T18:54:52.069Z,21.50
2018-05-21T18:57:19.612Z,21.50
2018-05-21T18:59:47.209Z,21.40
2018-05-21T19:02:15.488Z,21.40
2018-05-21T19:04:43.904Z,21.30
2018-05-21T19:07:11.481Z,21.30
2018-05-21T19:09:39.004Z,21.20
2018-05-21T19:12:06.529Z,21.20
2018-05-21T19:14:34.100Z,21.10
2018-05-21T19:17:01.683Z,21.10
2018-05-21T19:19:29.223Z,21.00
2018-05-21T19:21:56.797Z,21.00
2018-05-21T19:24:24.329Z,20.90
2018-05-21T19:26:51.857Z,20.90
2018-05-21T19:29:19.429Z,20.90
2018-05-21T19:31:46.967Z,20.80
2018-05-21T19:34:16.201Z,20.70
2018-05-21T19:36:43.863Z,20.70
2018-05-21T19:39:11.397Z,20.60
2018-05-21T19:41:38.927Z,20.60
2018-05-21T19:44:06.493Z,20.50
2018-05-21T19:46:34.063Z,20.40
2018-05-21T19:49:01.621Z,20.30
2018-05-21T19:51:29.208Z,20.20
2018-05-21T19:53:56.739Z,20.20
2018-05-21T19:56:25.037Z,19.90
2018-05-21T19:58:52.609Z,19.90
2018-05-21T20:01:20.143Z,19.90
2018-05-21T20:03:47.673Z,19.80
2018-05-21T20:06:16.169Z,19.70
2018-05-21T20:08:43.695Z,19.60
2018-05-21T20:11:11.989Z,19.50
2018-05-21T20:13:40.370Z,19.40
2018-05-21T20:16:07.892Z,19.50
2018-05-21T20:18:35.424Z,19.40
2018-05-21T20:21:03.772Z,19.30
2018-05-21T20:23:31.313Z,19.20
2018-05-21T20:25:58.844Z,19.20
2018-05-21T20:28:27.217Z,19.10
2018-05-21T20:30:54.753Z,19.10
2018-05-21T20:33:22.308Z,19.00
2018-05-21T20:35:49.880Z,19.00
2018-05-21T20:38:17.413Z,18.90
2018-05-21T20:40:44.948Z,18.80
2018-05-21T20:43:12.520Z,18.70
2018-05-21T20:45:40.046Z,18.70
2018-05-21T20:48:08.336Z,18.60
2018-05-21T20:50:36.673Z,18.60
2018-05-21T20:53:04.204Z,18.60
2018-05-21T20:55:31.764Z,18.50
2018-05-21T20:58:00.138Z,18.40
2018-05-21T21:00:27.671Z,18.40
2018-05-21T21:02:55.216Z,18.30
2018-05-21T21:05:22.795Z,18.30
2018-05-21T21:07:50.332Z,18.30
2018-05-21T21:10:18.649Z,18.20
2018-05-21T21:12:47.196Z,18.10
2018-05-21T21:15:14.729Z,18.10
2018-05-21T21:17:42.261Z,18.10
2018-05-21T21:20:10.609Z,18.00
2018-05-21T21:22:38.145Z,18.00
2018-05-21T21:25:05.692Z,18.00
2018-05-21T21:27:33.274Z,17.90
2018-05-21T21:30:00.809Z,17.90
2018-05-21T21:32:28.417Z,17.80
2018-05-21T21:34:55.935Z,17.80
2018-05-21T21:37:23.469Z,17.80
2018-05-21T21:39:50.997Z,17.80
2018-05-21T21:42:18.578Z,17.70
2018-05-21T21:44:46.445Z,17.70
2018-05-21T21:47:13.977Z,17.60
2018-05-21T21:49:41.560Z,17.60
2018-05-21T21:52:09.093Z,17.50
2018-05-21T21:54:36.625Z,17.50
2018-05-21T21:57:04.188Z,17.50
2018-05-21T21:59:31.721Z,17.50
2018-05-21T22:01:59.244Z,17.40
2018-05-21T22:04:26.821Z,17.30
2018-05-21T22:06:54.344Z,17.30
2018-05-21T22:09:21.868Z,17.20
2018-05-21T22:11:50.200Z,17.20
2018-05-21T22:14:17.721Z,17.20
2018-05-21T22:16:45.247Z,17.10
2018-05-21T22:19:12.820Z,17.10
2018-05-21T22:21:40.363Z,17.10
2018-05-21T22:24:07.924Z,17.00
2018-05-21T22:26:36.260Z,17.00
2018-05-21T22:29:03.784Z,17.00
2018-05-21T22:31:32.096Z,16.80
2018-05-21T22:33:59.780Z,16.90
2018-05-21T22:36:27.345Z,16.80
2018-05-21T22:38:54.868Z,16.80
2018-05-21T22:41:22.448Z,16.80
2018-05-21T22:43:50.745Z,16.70
2018-05-21T22:46:19.041Z,16.70
2018-05-21T22:48:46.787Z,16.60
2018-05-21T22:51:14.406Z,16.60
2018-05-21T22:53:41.937Z,16.60
2018-05-21T22:56:09.501Z,16.50
2018-05-21T22:58:37.033Z,16.50
2018-05-21T23:01:04.563Z,16.50
2018-05-21T23:03:32.917Z,16.40
2018-05-21T23:06:00.449Z,16.40
2018-05-21T23:08:27.975Z,16.40
2018-05-21T23:10:55.536Z,16.40
2018-05-21T23:13:23.063Z,16.30
2018-05-21T23:15:50.585Z,16.30
2018-05-21T23:18:18.163Z,16.20
2018-05-21T23:20:45.698Z,16.20
2018-05-21T23:23:13.227Z,16.20
2018-05-21T23:25:41.556Z,16.10
2018-05-21T23:28:09.102Z,16.10
2018-05-21T23:30:36.622Z,16.00
2018-05-21T23:33:04.200Z,16.00
2018-05-21T23:35:31.736Z,16.00
2018-05-21T23:37:59.279Z,16.00
2018-05-21T23:40:26.893Z,15.90
2018-05-21T23:42:54.418Z,15.90
2018-05-21T23:45:21.947Z,15.80
2018-05-21T23:47:49.510Z,15.80
2018-05-21T23:50:17.245Z,15.80
2018-05-21T23:52:44.778Z,15.80
2018-05-21T23:55:12.348Z,15.70
2018-05-21T23:57:39.890Z,15.70
